sensor_id;sensor_type;location;lat;lon;timestamp;temperature;humidity
34568;DHT22;20806;50.746;7.116;2023-03-23T00:02:25;14.10;99.90
34568;DHT22;20806;50.746;7.116;2023-03-23T00:04:51;14.00;99.90
34568;DHT22;20806;50.746;7.116;2023-03-23T00:07:16;14.00;99.90
34568;DHT22;20806;50.746;7.116;2023-03-23T00:09:49;14.00;99.90
34568;DHT22;20806;50.746;7.116;2023-03-23T00:12:29;14.10;99.90
34568;DHT22;20806;50.746;7.116;2023-03-23T00:14:59;14.00;99.90
34568;DHT22;20806;50.746;7.116;2023-03-23T00:17:26;14.00;99.90
34568;DHT22;20806;50.746;7.116;2023-03-23T00:19:51;14.00;99.90
34568;DHT22;20806;50.746;7.116;2023-03-23T00:22:17;14.00;99.90
34568;DHT22;20806;50.746;7.116;2023-03-23T00:24:44;14.00;99.90
34568;DHT22;20806;50.746;7.116;2023-03-23T00:27:10;14.10;99.90
34568;DHT22;20806;50.746;7.116;2023-03-23T00:29:38;14.10;99.90
34568;DHT22;20806;50.746;7.116;2023-03-23T00:32:03;14.10;99.90
34568;DHT22;20806;50.746;7.116;2023-03-23T00:34:29;14.10;99.90
34568;DHT22;20806;50.746;7.116;2023-03-23T00:36:57;14.10;99.90
34568;DHT22;20806;50.746;7.116;2023-03-23T00:39:24;14.10;99.90
34568;DHT22;20806;50.746;7.116;2023-03-23T00:41:50;14.10;99.90
34568;DHT22;20806;50.746;7.116;2023-03-23T00:44:16;14.00;99.90
34568;DHT22;20806;50.746;7.116;2023-03-23T00:46:47;14.00;99.90
34568;DHT22;20806;50.746;7.116;2023-03-23T00:49:15;14.00;99.90
34568;DHT22;20806;50.746;7.116;2023-03-23T00:51:42;14.00;99.90
34568;DHT22;20806;50.746;7.116;2023-03-23T00:54:07;14.00;99.90
34568;DHT22;20806;50.746;7.116;2023-03-23T00:56:33;14.00;99.90
34568;DHT22;20806;50.746;7.116;2023-03-23T00:58:59;14.00;99.90
34568;DHT22;20806;50.746;7.116;2023-03-23T01:01:25;14.00;99.90
34568;DHT22;20806;50.746;7.116;2023-03-23T01:03:50;14.00;99.90
34568;DHT22;20806;50.746;7.116;2023-03-23T01:06:16;14.00;99.90
34568;DHT22;20806;50.746;7.116;2023-03-23T01:08:41;13.90;99.90
34568;DHT22;20806;50.746;7.116;2023-03-23T01:11:14;14.00;99.90
34568;DHT22;20806;50.746;7.116;2023-03-23T01:13:40;13.90;99.90
34568;DHT22;20806;50.746;7.116;2023-03-23T01:16:07;14.00;99.90
34568;DHT22;20806;50.746;7.116;2023-03-23T01:18:32;13.90;99.90
34568;DHT22;20806;50.746;7.116;2023-03-23T01:21:03;13.90;99.90
34568;DHT22;20806;50.746;7.116;2023-03-23T01:23:28;13.90;99.90
34568;DHT22;20806;50.746;7.116;2023-03-23T01:25:54;13.90;99.90
34568;DHT22;20806;50.746;7.116;2023-03-23T01:28:23;13.90;99.90
34568;DHT22;20806;50.746;7.116;2023-03-23T01:30:48;13.90;99.90
34568;DHT22;20806;50.746;7.116;2023-03-23T01:33:14;14.00;99.90
34568;DHT22;20806;50.746;7.116;2023-03-23T01:35:39;13.90;99.90
34568;DHT22;20806;50.746;7.116;2023-03-23T01:38:05;13.90;99.90
34568;DHT22;20806;50.746;7.116;2023-03-23T01:40:30;13.90;99.90
34568;DHT22;20806;50.746;7.116;2023-03-23T01:42:56;13.90;99.90
34568;DHT22;20806;50.746;7.116;2023-03-23T01:47:47;13.90;99.90
34568;DHT22;20806;50.746;7.116;2023-03-23T01:50:16;13.90;99.90
34568;DHT22;20806;50.746;7.116;2023-03-23T01:52:42;13.90;99.90
34568;DHT22;20806;50.746;7.116;2023-03-23T01:55:07;13.90;99.90
34568;DHT22;20806;50.746;7.116;2023-03-23T01:57:33;13.80;99.90
34568;DHT22;20806;50.746;7.116;2023-03-23T01:59:59;13.80;99.90
34568;DHT22;20806;50.746;7.116;2023-03-23T02:02:33;13.80;99.90
34568;DHT22;20806;50.746;7.116;2023-03-23T02:05:02;13.80;99.90
34568;DHT22;20806;50.746;7.116;2023-03-23T02:07:29;13.80;99.90
34568;DHT22;20806;50.746;7.116;2023-03-23T02:09:56;13.70;99.90
34568;DHT22;20806;50.746;7.116;2023-03-23T02:12:22;13.80;99.90
34568;DHT22;20806;50.746;7.116;2023-03-23T02:14:47;13.70;99.90
34568;DHT22;20806;50.746;7.116;2023-03-23T02:25:04;13.60;99.90
34568;DHT22;20806;50.746;7.116;2023-03-23T02:33:11;13.50;99.90
34568;DHT22;20806;50.746;7.116;2023-03-23T02:35:42;13.50;99.90
34568;DHT22;20806;50.746;7.116;2023-03-23T02:38:20;13.50;99.90
34568;DHT22;20806;50.746;7.116;2023-03-23T02:40:48;13.40;99.90
34568;DHT22;20806;50.746;7.116;2023-03-23T02:43:15;13.40;99.90
34568;DHT22;20806;50.746;7.116;2023-03-23T02:45:42;13.40;99.90
34568;DHT22;20806;50.746;7.116;2023-03-23T02:48:09;13.40;99.90
34568;DHT22;20806;50.746;7.116;2023-03-23T02:50:35;13.40;99.90
34568;DHT22;20806;50.746;7.116;2023-03-23T02:53:01;13.40;99.90
34568;DHT22;20806;50.746;7.116;2023-03-23T02:55:29;13.40;99.90
34568;DHT22;20806;50.746;7.116;2023-03-23T02:57:56;13.20;99.90
34568;DHT22;20806;50.746;7.116;2023-03-23T03:00:21;13.20;99.90
34568;DHT22;20806;50.746;7.116;2023-03-23T03:02:48;13.10;99.90
34568;DHT22;20806;50.746;7.116;2023-03-23T03:05:24;13.00;99.90
34568;DHT22;20806;50.746;7.116;2023-03-23T03:18:18;12.90;99.90
34568;DHT22;20806;50.746;7.116;2023-03-23T03:20:48;12.90;99.90
34568;DHT22;20806;50.746;7.116;2023-03-23T03:23:14;12.90;99.90
34568;DHT22;20806;50.746;7.116;2023-03-23T03:25:41;12.90;99.90
34568;DHT22;20806;50.746;7.116;2023-03-23T03:28:14;12.80;99.90
34568;DHT22;20806;50.746;7.116;2023-03-23T03:30:40;12.80;99.90
34568;DHT22;20806;50.746;7.116;2023-03-23T03:33:09;12.80;99.90
34568;DHT22;20806;50.746;7.116;2023-03-23T03:35:36;12.80;99.90
34568;DHT22;20806;50.746;7.116;2023-03-23T03:38:07;12.80;99.90
34568;DHT22;20806;50.746;7.116;2023-03-23T03:40:33;12.80;99.90
34568;DHT22;20806;50.746;7.116;2023-03-23T03:42:58;12.80;99.90
34568;DHT22;20806;50.746;7.116;2023-03-23T03:45:24;12.80;99.90
34568;DHT22;20806;50.746;7.116;2023-03-23T03:47:49;12.70;99.90
34568;DHT22;20806;50.746;7.116;2023-03-23T03:50:15;12.80;99.90
34568;DHT22;20806;50.746;7.116;2023-03-23T03:52:41;12.80;99.90
34568;DHT22;20806;50.746;7.116;2023-03-23T03:55:07;12.80;99.90
34568;DHT22;20806;50.746;7.116;2023-03-23T03:57:34;12.80;99.90
34568;DHT22;20806;50.746;7.116;2023-03-23T04:00:00;12.80;99.90
34568;DHT22;20806;50.746;7.116;2023-03-23T04:02:25;12.80;99.90
34568;DHT22;20806;50.746;7.116;2023-03-23T04:04:51;12.80;99.90
34568;DHT22;20806;50.746;7.116;2023-03-23T04:07:19;12.80;99.90
34568;DHT22;20806;50.746;7.116;2023-03-23T04:09:46;12.80;99.90
34568;DHT22;20806;50.746;7.116;2023-03-23T04:12:13;12.90;99.90
34568;DHT22;20806;50.746;7.116;2023-03-23T04:14:38;12.90;99.90
34568;DHT22;20806;50.746;7.116;2023-03-23T04:17:04;12.90;99.90
34568;DHT22;20806;50.746;7.116;2023-03-23T04:19:29;12.90;99.90
34568;DHT22;20806;50.746;7.116;2023-03-23T04:21:58;12.90;99.90
34568;DHT22;20806;50.746;7.116;2023-03-23T04:24:23;12.90;99.90
34568;DHT22;20806;50.746;7.116;2023-03-23T04:26:49;12.90;99.90
34568;DHT22;20806;50.746;7.116;2023-03-23T04:29:17;12.90;99.90
34568;DHT22;20806;50.746;7.116;2023-03-23T04:31:43;12.90;99.90
34568;DHT22;20806;50.746;7.116;2023-03-23T04:34:10;12.80;99.90
34568;DHT22;20806;50.746;7.116;2023-03-23T04:36:38;12.80;99.90
34568;DHT22;20806;50.746;7.116;2023-03-23T04:39:04;12.80;99.90
34568;DHT22;20806;50.746;7.116;2023-03-23T04:41:32;12.80;99.90
34568;DHT22;20806;50.746;7.116;2023-03-23T04:43:57;12.80;99.90
34568;DHT22;20806;50.746;7.116;2023-03-23T04:46:28;12.80;99.90
34568;DHT22;20806;50.746;7.116;2023-03-23T04:48:54;12.70;99.90
34568;DHT22;20806;50.746;7.116;2023-03-23T04:51:20;12.70;99.90
34568;DHT22;20806;50.746;7.116;2023-03-23T04:53:45;12.70;99.90
34568;DHT22;20806;50.746;7.116;2023-03-23T04:56:11;12.70;99.90
34568;DHT22;20806;50.746;7.116;2023-03-23T04:58:39;12.70;99.90
34568;DHT22;20806;50.746;7.116;2023-03-23T05:01:04;12.70;99.90
34568;DHT22;20806;50.746;7.116;2023-03-23T05:03:30;12.70;99.90
34568;DHT22;20806;50.746;7.116;2023-03-23T05:05:56;12.70;99.90
34568;DHT22;20806;50.746;7.116;2023-03-23T05:08:24;12.70;99.90
34568;DHT22;20806;50.746;7.116;2023-03-23T05:10:53;12.60;99.90
34568;DHT22;20806;50.746;7.116;2023-03-23T05:13:19;12.60;99.90
34568;DHT22;20806;50.746;7.116;2023-03-23T05:15:45;12.60;99.90
34568;DHT22;20806;50.746;7.116;2023-03-23T05:18:11;12.60;99.90
34568;DHT22;20806;50.746;7.116;2023-03-23T05:20:36;12.60;99.90
34568;DHT22;20806;50.746;7.116;2023-03-23T05:23:02;12.50;99.90
34568;DHT22;20806;50.746;7.116;2023-03-23T05:25:27;12.60;99.90
34568;DHT22;20806;50.746;7.116;2023-03-23T05:27:53;12.50;99.90
34568;DHT22;20806;50.746;7.116;2023-03-23T05:30:19;12.50;99.90
34568;DHT22;20806;50.746;7.116;2023-03-23T05:32:45;12.50;99.90
34568;DHT22;20806;50.746;7.116;2023-03-23T05:35:11;12.50;99.90
34568;DHT22;20806;50.746;7.116;2023-03-23T05:37:37;12.50;99.90
34568;DHT22;20806;50.746;7.116;2023-03-23T05:40:04;12.50;99.90
34568;DHT22;20806;50.746;7.116;2023-03-23T05:42:32;12.50;99.90
34568;DHT22;20806;50.746;7.116;2023-03-23T05:44:58;12.60;99.90
34568;DHT22;20806;50.746;7.116;2023-03-23T05:47:24;12.60;99.90
34568;DHT22;20806;50.746;7.116;2023-03-23T05:49:50;12.70;99.90
34568;DHT22;20806;50.746;7.116;2023-03-23T05:52:17;12.70;99.90
34568;DHT22;20806;50.746;7.116;2023-03-23T05:54:42;12.70;99.90
34568;DHT22;20806;50.746;7.116;2023-03-23T05:57:08;12.80;99.90
34568;DHT22;20806;50.746;7.116;2023-03-23T05:59:34;12.70;99.90
34568;DHT22;20806;50.746;7.116;2023-03-23T06:02:00;12.70;99.90
34568;DHT22;20806;50.746;7.116;2023-03-23T06:04:25;12.80;99.90
34568;DHT22;20806;50.746;7.116;2023-03-23T06:06:52;12.80;99.90
34568;DHT22;20806;50.746;7.116;2023-03-23T06:09:18;12.80;99.90
34568;DHT22;20806;50.746;7.116;2023-03-23T06:11:43;12.80;99.90
34568;DHT22;20806;50.746;7.116;2023-03-23T06:14:09;12.90;99.90
34568;DHT22;20806;50.746;7.116;2023-03-23T06:16:35;12.90;99.90
34568;DHT22;20806;50.746;7.116;2023-03-23T06:19:00;12.90;99.90
34568;DHT22;20806;50.746;7.116;2023-03-23T06:21:27;13.00;99.90
34568;DHT22;20806;50.746;7.116;2023-03-23T06:23:53;13.00;99.90
34568;DHT22;20806;50.746;7.116;2023-03-23T06:26:19;13.10;99.90
34568;DHT22;20806;50.746;7.116;2023-03-23T06:28:45;13.10;99.90
34568;DHT22;20806;50.746;7.116;2023-03-23T06:31:10;13.20;99.90
34568;DHT22;20806;50.746;7.116;2023-03-23T06:33:36;13.20;99.90
34568;DHT22;20806;50.746;7.116;2023-03-23T06:36:03;13.30;99.90
34568;DHT22;20806;50.746;7.116;2023-03-23T06:38:30;13.30;99.90
34568;DHT22;20806;50.746;7.116;2023-03-23T06:40:55;13.40;99.90
34568;DHT22;20806;50.746;7.116;2023-03-23T06:43:22;13.40;99.90
34568;DHT22;20806;50.746;7.116;2023-03-23T06:45:47;13.40;99.90
34568;DHT22;20806;50.746;7.116;2023-03-23T06:48:13;13.50;99.90
34568;DHT22;20806;50.746;7.116;2023-03-23T06:50:38;13.60;99.90
34568;DHT22;20806;50.746;7.116;2023-03-23T06:53:07;13.60;99.90
34568;DHT22;20806;50.746;7.116;2023-03-23T06:55:32;13.60;99.90
34568;DHT22;20806;50.746;7.116;2023-03-23T06:57:58;13.60;99.90
34568;DHT22;20806;50.746;7.116;2023-03-23T07:00:26;13.60;99.90
34568;DHT22;20806;50.746;7.116;2023-03-23T07:02:51;13.70;99.90
34568;DHT22;20806;50.746;7.116;2023-03-23T07:05:17;13.70;99.90
34568;DHT22;20806;50.746;7.116;2023-03-23T07:07:42;13.80;99.90
34568;DHT22;20806;50.746;7.116;2023-03-23T07:10:08;13.80;99.90
34568;DHT22;20806;50.746;7.116;2023-03-23T07:12:34;13.80;99.90
34568;DHT22;20806;50.746;7.116;2023-03-23T07:15:01;13.80;99.90
34568;DHT22;20806;50.746;7.116;2023-03-23T07:17:27;13.80;99.90
34568;DHT22;20806;50.746;7.116;2023-03-23T07:19:53;13.90;99.90
34568;DHT22;20806;50.746;7.116;2023-03-23T07:22:19;14.00;99.90
34568;DHT22;20806;50.746;7.116;2023-03-23T07:24:44;14.00;99.90
34568;DHT22;20806;50.746;7.116;2023-03-23T07:27:10;14.00;99.90
34568;DHT22;20806;50.746;7.116;2023-03-23T07:29:36;14.10;99.90
34568;DHT22;20806;50.746;7.116;2023-03-23T07:32:04;14.20;99.90
34568;DHT22;20806;50.746;7.116;2023-03-23T07:34:30;14.20;99.90
34568;DHT22;20806;50.746;7.116;2023-03-23T07:36:55;14.30;99.90
34568;DHT22;20806;50.746;7.116;2023-03-23T07:39:21;14.30;99.90
34568;DHT22;20806;50.746;7.116;2023-03-23T07:41:48;14.40;99.90
34568;DHT22;20806;50.746;7.116;2023-03-23T07:44:14;14.40;99.90
34568;DHT22;20806;50.746;7.116;2023-03-23T07:46:40;14.40;99.90
34568;DHT22;20806;50.746;7.116;2023-03-23T07:49:07;14.50;99.90
34568;DHT22;20806;50.746;7.116;2023-03-23T07:51:33;14.50;99.90
34568;DHT22;20806;50.746;7.116;2023-03-23T07:53:59;14.60;99.90
34568;DHT22;20806;50.746;7.116;2023-03-23T07:56:25;14.70;99.90
